sensor_id;sensor_type;location;lat;lon;timestamp;P1;durP1;ratioP1;P2;durP2;ratioP2
31347;SDS011;21711;49.708;18.568;2023-11-19T00:00:09;33.07;;;14.53;;
31347;SDS011;21711;49.708;18.568;2023-11-19T00:02:41;38.87;;;15.13;;
31347;SDS011;21711;49.708;18.568;2023-11-19T00:05:09;34.30;;;13.90;;
31347;SDS011;21711;49.708;18.568;2023-11-19T00:07:39;37.87;;;12.77;;
31347;SDS011;21711;49.708;18.568;2023-11-19T00:10:11;36.67;;;13.03;;
31347;SDS011;21711;49.708;18.568;2023-11-19T00:12:46;37.97;;;15.07;;
31347;SDS011;21711;49.708;18.568;2023-11-19T00:15:16;38.28;;;15.38;;
31347;SDS011;21711;49.708;18.568;2023-11-19T00:17:46;37.25;;;14.32;;
31347;SDS011;21711;49.708;18.568;2023-11-19T00:20:16;34.97;;;13.98;;
31347;SDS011;21711;49.708;18.568;2023-11-19T00:22:45;36.50;;;13.80;;
31347;SDS011;21711;49.708;18.568;2023-11-19T00:27:45;43.67;;;14.60;;
31347;SDS011;21711;49.708;18.568;2023-11-19T00:30:12;43.20;;;16.03;;
31347;SDS011;21711;49.708;18.568;2023-11-19T00:32:41;40.43;;;14.37;;
31347;SDS011;21711;49.708;18.568;2023-11-19T00:35:09;37.87;;;14.73;;
31347;SDS011;21711;49.708;18.568;2023-11-19T00:37:37;40.57;;;14.70;;
31347;SDS011;21711;49.708;18.568;2023-11-19T00:40:04;35.90;;;13.77;;
31347;SDS011;21711;49.708;18.568;2023-11-19T00:42:33;36.90;;;14.17;;
31347;SDS011;21711;49.708;18.568;2023-11-19T00:45:00;36.37;;;14.77;;
31347;SDS011;21711;49.708;18.568;2023-11-19T00:47:28;41.33;;;15.10;;
31347;SDS011;21711;49.708;18.568;2023-11-19T00:49:57;37.47;;;13.47;;
31347;SDS011;21711;49.708;18.568;2023-11-19T00:52:25;38.03;;;12.83;;
31347;SDS011;21711;49.708;18.568;2023-11-19T00:54:52;35.63;;;12.20;;
31347;SDS011;21711;49.708;18.568;2023-11-19T00:57:20;31.90;;;11.37;;
31347;SDS011;21711;49.708;18.568;2023-11-19T00:59:47;30.43;;;11.13;;
31347;SDS011;21711;49.708;18.568;2023-11-19T01:02:14;24.47;;;11.10;;
31347;SDS011;21711;49.708;18.568;2023-11-19T01:04:42;26.13;;;9.03;;
31347;SDS011;21711;49.708;18.568;2023-11-19T01:07:10;31.07;;;10.47;;
31347;SDS011;21711;49.708;18.568;2023-11-19T01:09:41;29.30;;;11.97;;
31347;SDS011;21711;49.708;18.568;2023-11-19T01:12:09;35.33;;;12.17;;
31347;SDS011;21711;49.708;18.568;2023-11-19T01:14:37;35.97;;;14.37;;
31347;SDS011;21711;49.708;18.568;2023-11-19T01:17:05;39.47;;;13.80;;
31347;SDS011;21711;49.708;18.568;2023-11-19T01:19:34;33.50;;;13.30;;
31347;SDS011;21711;49.708;18.568;2023-11-19T01:22:01;38.77;;;13.73;;
31347;SDS011;21711;49.708;18.568;2023-11-19T01:24:28;32.80;;;13.40;;
31347;SDS011;21711;49.708;18.568;2023-11-19T01:26:57;29.37;;;11.30;;
31347;SDS011;21711;49.708;18.568;2023-11-19T01:29:26;33.73;;;12.27;;
31347;SDS011;21711;49.708;18.568;2023-11-19T01:31:53;36.77;;;12.50;;
31347;SDS011;21711;49.708;18.568;2023-11-19T01:34:21;39.17;;;13.77;;
31347;SDS011;21711;49.708;18.568;2023-11-19T01:36:49;30.13;;;12.23;;
31347;SDS011;21711;49.708;18.568;2023-11-19T01:39:16;31.97;;;11.20;;
31347;SDS011;21711;49.708;18.568;2023-11-19T01:41:44;29.37;;;11.67;;
31347;SDS011;21711;49.708;18.568;2023-11-19T01:44:11;27.83;;;11.77;;
31347;SDS011;21711;49.708;18.568;2023-11-19T01:46:42;30.40;;;11.70;;
31347;SDS011;21711;49.708;18.568;2023-11-19T01:49:14;35.00;;;12.43;;
31347;SDS011;21711;49.708;18.568;2023-11-19T01:51:44;35.97;;;12.50;;
31347;SDS011;21711;49.708;18.568;2023-11-19T01:54:14;32.00;;;12.30;;
31347;SDS011;21711;49.708;18.568;2023-11-19T01:56:42;30.87;;;11.93;;
31347;SDS011;21711;49.708;18.568;2023-11-19T01:59:10;29.37;;;11.23;;
31347;SDS011;21711;49.708;18.568;2023-11-19T02:01:40;32.92;;;12.57;;
31347;SDS011;21711;49.708;18.568;2023-11-19T02:04:09;33.27;;;12.33;;
31347;SDS011;21711;49.708;18.568;2023-11-19T02:06:39;27.97;;;12.40;;
31347;SDS011;21711;49.708;18.568;2023-11-19T02:09:08;35.33;;;12.98;;
31347;SDS011;21711;49.708;18.568;2023-11-19T02:11:36;30.83;;;12.70;;
31347;SDS011;21711;49.708;18.568;2023-11-19T02:14:07;29.63;;;11.48;;
31347;SDS011;21711;49.708;18.568;2023-11-19T02:16:34;27.93;;;12.70;;
31347;SDS011;21711;49.708;18.568;2023-11-19T02:19:02;26.23;;;10.83;;
31347;SDS011;21711;49.708;18.568;2023-11-19T02:21:30;31.40;;;13.00;;
31347;SDS011;21711;49.708;18.568;2023-11-19T02:23:57;24.07;;;9.53;;
31347;SDS011;21711;49.708;18.568;2023-11-19T02:26:32;24.88;;;10.15;;
31347;SDS011;21711;49.708;18.568;2023-11-19T02:29:22;25.80;;;10.03;;
31347;SDS011;21711;49.708;18.568;2023-11-19T02:31:49;22.10;;;9.83;;
31347;SDS011;21711;49.708;18.568;2023-11-19T02:34:17;25.20;;;10.03;;
31347;SDS011;21711;49.708;18.568;2023-11-19T02:36:45;25.87;;;9.23;;
31347;SDS011;21711;49.708;18.568;2023-11-19T02:39:13;20.27;;;8.03;;
31347;SDS011;21711;49.708;18.568;2023-11-19T02:41:41;24.73;;;9.27;;
31347;SDS011;21711;49.708;18.568;2023-11-19T02:44:08;20.97;;;8.40;;
31347;SDS011;21711;49.708;18.568;2023-11-19T02:46:35;22.57;;;9.23;;
31347;SDS011;21711;49.708;18.568;2023-11-19T02:49:03;20.33;;;8.17;;
31347;SDS011;21711;49.708;18.568;2023-11-19T02:51:30;18.10;;;6.67;;
31347;SDS011;21711;49.708;18.568;2023-11-19T02:53:58;25.23;;;8.73;;
31347;SDS011;21711;49.708;18.568;2023-11-19T02:56:25;22.40;;;7.67;;
31347;SDS011;21711;49.708;18.568;2023-11-19T02:58:53;18.67;;;6.90;;
31347;SDS011;21711;49.708;18.568;2023-11-19T03:01:21;18.30;;;7.00;;
31347;SDS011;21711;49.708;18.568;2023-11-19T03:03:58;19.00;;;7.00;;
31347;SDS011;21711;49.708;18.568;2023-11-19T03:06:30;16.57;;;6.73;;
31347;SDS011;21711;49.708;18.568;2023-11-19T03:08:57;13.77;;;5.77;;
31347;SDS011;21711;49.708;18.568;2023-11-19T03:11:24;16.17;;;6.30;;
31347;SDS011;21711;49.708;18.568;2023-11-19T03:13:52;15.43;;;6.83;;
31347;SDS011;21711;49.708;18.568;2023-11-19T03:16:19;16.63;;;6.77;;
31347;SDS011;21711;49.708;18.568;2023-11-19T03:18:46;14.10;;;6.00;;
31347;SDS011;21711;49.708;18.568;2023-11-19T03:21:14;18.10;;;6.70;;
31347;SDS011;21711;49.708;18.568;2023-11-19T03:23:41;18.07;;;7.33;;
31347;SDS011;21711;49.708;18.568;2023-11-19T03:26:10;16.37;;;6.43;;
31347;SDS011;21711;49.708;18.568;2023-11-19T03:28:37;20.13;;;7.30;;
31347;SDS011;21711;49.708;18.568;2023-11-19T03:31:05;14.73;;;7.07;;
31347;SDS011;21711;49.708;18.568;2023-11-19T03:33:35;17.00;;;6.80;;
31347;SDS011;21711;49.708;18.568;2023-11-19T03:36:04;16.13;;;6.10;;
31347;SDS011;21711;49.708;18.568;2023-11-19T03:38:32;14.23;;;6.83;;
31347;SDS011;21711;49.708;18.568;2023-11-19T03:41:00;17.20;;;6.10;;
31347;SDS011;21711;49.708;18.568;2023-11-19T03:43:27;15.50;;;7.17;;
31347;SDS011;21711;49.708;18.568;2023-11-19T03:45:54;14.97;;;5.83;;
31347;SDS011;21711;49.708;18.568;2023-11-19T03:48:22;16.77;;;6.43;;
31347;SDS011;21711;49.708;18.568;2023-11-19T03:50:49;14.77;;;5.43;;
31347;SDS011;21711;49.708;18.568;2023-11-19T03:53:16;14.30;;;6.70;;
31347;SDS011;21711;49.708;18.568;2023-11-19T03:55:45;12.53;;;5.47;;
31347;SDS011;21711;49.708;18.568;2023-11-19T03:58:12;15.43;;;5.63;;
31347;SDS011;21711;49.708;18.568;2023-11-19T04:00:40;14.00;;;6.27;;
31347;SDS011;21711;49.708;18.568;2023-11-19T04:03:07;14.90;;;5.67;;
31347;SDS011;21711;49.708;18.568;2023-11-19T04:05:36;15.63;;;5.40;;
31347;SDS011;21711;49.708;18.568;2023-11-19T04:08:03;13.00;;;5.80;;
31347;SDS011;21711;49.708;18.568;2023-11-19T04:10:31;18.17;;;6.67;;
31347;SDS011;21711;49.708;18.568;2023-11-19T04:12:59;19.03;;;6.47;;
31347;SDS011;21711;49.708;18.568;2023-11-19T04:15:26;15.03;;;6.87;;
31347;SDS011;21711;49.708;18.568;2023-11-19T04:17:53;15.37;;;5.67;;
31347;SDS011;21711;49.708;18.568;2023-11-19T04:20:20;12.33;;;5.80;;
31347;SDS011;21711;49.708;18.568;2023-11-19T04:22:49;16.40;;;6.30;;
31347;SDS011;21711;49.708;18.568;2023-11-19T04:25:17;10.90;;;4.67;;
31347;SDS011;21711;49.708;18.568;2023-11-19T04:27:45;14.80;;;6.27;;
31347;SDS011;21711;49.708;18.568;2023-11-19T04:30:14;12.93;;;5.80;;
31347;SDS011;21711;49.708;18.568;2023-11-19T04:32:42;14.03;;;5.43;;
31347;SDS011;21711;49.708;18.568;2023-11-19T04:35:09;16.80;;;5.63;;
31347;SDS011;21711;49.708;18.568;2023-11-19T04:37:37;15.73;;;5.97;;
31347;SDS011;21711;49.708;18.568;2023-11-19T04:40:05;14.10;;;5.73;;
31347;SDS011;21711;49.708;18.568;2023-11-19T04:42:34;17.23;;;6.03;;
31347;SDS011;21711;49.708;18.568;2023-11-19T04:45:01;12.83;;;5.73;;
31347;SDS011;21711;49.708;18.568;2023-11-19T04:47:28;13.27;;;5.87;;
31347;SDS011;21711;49.708;18.568;2023-11-19T04:49:55;13.50;;;5.30;;
31347;SDS011;21711;49.708;18.568;2023-11-19T04:52:23;12.73;;;5.00;;
31347;SDS011;21711;49.708;18.568;2023-11-19T04:54:50;10.50;;;4.40;;
31347;SDS011;21711;49.708;18.568;2023-11-19T04:57:17;10.30;;;4.40;;
31347;SDS011;21711;49.708;18.568;2023-11-19T04:59:45;13.17;;;5.77;;
31347;SDS011;21711;49.708;18.568;2023-11-19T05:02:12;12.63;;;4.93;;
31347;SDS011;21711;49.708;18.568;2023-11-19T05:04:43;16.80;;;5.23;;
31347;SDS011;21711;49.708;18.568;2023-11-19T05:07:14;13.87;;;5.37;;
31347;SDS011;21711;49.708;18.568;2023-11-19T05:09:41;12.30;;;5.70;;
31347;SDS011;21711;49.708;18.568;2023-11-19T05:12:09;13.97;;;5.23;;
31347;SDS011;21711;49.708;18.568;2023-11-19T05:14:39;12.67;;;5.27;;
31347;SDS011;21711;49.708;18.568;2023-11-19T05:17:06;9.73;;;4.80;;
31347;SDS011;21711;49.708;18.568;2023-11-19T05:19:34;11.93;;;4.60;;
31347;SDS011;21711;49.708;18.568;2023-11-19T05:22:02;12.43;;;4.20;;
31347;SDS011;21711;49.708;18.568;2023-11-19T05:24:31;11.73;;;4.67;;
31347;SDS011;21711;49.708;18.568;2023-11-19T05:26:58;11.70;;;4.63;;
31347;SDS011;21711;49.708;18.568;2023-11-19T05:29:26;12.77;;;4.87;;
31347;SDS011;21711;49.708;18.568;2023-11-19T05:31:53;9.43;;;4.53;;
31347;SDS011;21711;49.708;18.568;2023-11-19T05:34:22;11.70;;;4.93;;
31347;SDS011;21711;49.708;18.568;2023-11-19T05:36:49;13.03;;;4.90;;
31347;SDS011;21711;49.708;18.568;2023-11-19T05:39:17;11.60;;;4.23;;
31347;SDS011;21711;49.708;18.568;2023-11-19T05:41:48;11.47;;;5.20;;
31347;SDS011;21711;49.708;18.568;2023-11-19T05:44:15;12.23;;;4.97;;
31347;SDS011;21711;49.708;18.568;2023-11-19T05:46:45;12.30;;;4.80;;
31347;SDS011;21711;49.708;18.568;2023-11-19T05:49:12;12.47;;;5.33;;
31347;SDS011;21711;49.708;18.568;2023-11-19T05:51:40;13.67;;;4.43;;
31347;SDS011;21711;49.708;18.568;2023-11-19T05:54:08;11.97;;;5.57;;
31347;SDS011;21711;49.708;18.568;2023-11-19T05:56:37;12.80;;;5.00;;
31347;SDS011;21711;49.708;18.568;2023-11-19T05:59:04;11.37;;;6.23;;
31347;SDS011;21711;49.708;18.568;2023-11-19T06:01:34;15.10;;;5.77;;
31347;SDS011;21711;49.708;18.568;2023-11-19T06:04:01;13.47;;;5.03;;
31347;SDS011;21711;49.708;18.568;2023-11-19T06:06:29;11.00;;;4.97;;
31347;SDS011;21711;49.708;18.568;2023-11-19T06:08:57;12.13;;;5.33;;
31347;SDS011;21711;49.708;18.568;2023-11-19T06:11:38;13.50;;;6.10;;
31347;SDS011;21711;49.708;18.568;2023-11-19T06:14:06;12.13;;;5.90;;
31347;SDS011;21711;49.708;18.568;2023-11-19T06:16:34;11.70;;;5.17;;
31347;SDS011;21711;49.708;18.568;2023-11-19T06:19:03;12.83;;;5.10;;
31347;SDS011;21711;49.708;18.568;2023-11-19T06:21:31;11.20;;;4.70;;
31347;SDS011;21711;49.708;18.568;2023-11-19T06:23:58;12.37;;;6.03;;
31347;SDS011;21711;49.708;18.568;2023-11-19T06:26:26;10.43;;;4.70;;
31347;SDS011;21711;49.708;18.568;2023-11-19T06:28:54;12.77;;;5.30;;
31347;SDS011;21711;49.708;18.568;2023-11-19T06:31:21;11.93;;;5.33;;
31347;SDS011;21711;49.708;18.568;2023-11-19T06:33:48;11.53;;;5.40;;
31347;SDS011;21711;49.708;18.568;2023-11-19T06:36:16;11.13;;;5.23;;
31347;SDS011;21711;49.708;18.568;2023-11-19T06:38:43;10.33;;;5.17;;
31347;SDS011;21711;49.708;18.568;2023-11-19T06:41:11;11.17;;;5.00;;
31347;SDS011;21711;49.708;18.568;2023-11-19T06:43:38;14.03;;;5.80;;
31347;SDS011;21711;49.708;18.568;2023-11-19T06:46:14;13.90;;;5.50;;
31347;SDS011;21711;49.708;18.568;2023-11-19T06:48:45;16.57;;;5.60;;
31347;SDS011;21711;49.708;18.568;2023-11-19T06:51:13;17.70;;;5.47;;
31347;SDS011;21711;49.708;18.568;2023-11-19T06:53:42;12.77;;;5.47;;
31347;SDS011;21711;49.708;18.568;2023-11-19T06:58:51;13.03;;;5.70;;
31347;SDS011;21711;49.708;18.568;2023-11-19T07:01:18;12.63;;;4.93;;
31347;SDS011;21711;49.708;18.568;2023-11-19T07:03:46;11.70;;;5.70;;
31347;SDS011;21711;49.708;18.568;2023-11-19T07:06:15;12.37;;;5.53;;
31347;SDS011;21711;49.708;18.568;2023-11-19T07:08:42;11.40;;;5.50;;
31347;SDS011;21711;49.708;18.568;2023-11-19T07:11:12;9.97;;;4.90;;
31347;SDS011;21711;49.708;18.568;2023-11-19T07:13:43;13.60;;;5.20;;
31347;SDS011;21711;49.708;18.568;2023-11-19T07:16:14;11.83;;;5.03;;
31347;SDS011;21711;49.708;18.568;2023-11-19T07:18:41;12.90;;;5.78;;
31347;SDS011;21711;49.708;18.568;2023-11-19T07:21:10;11.93;;;5.38;;
31347;SDS011;21711;49.708;18.568;2023-11-19T07:23:38;14.60;;;6.65;;
31347;SDS011;21711;49.708;18.568;2023-11-19T07:26:06;12.00;;;6.15;;
31347;SDS011;21711;49.708;18.568;2023-11-19T07:31:03;11.67;;;6.00;;
31347;SDS011;21711;49.708;18.568;2023-11-19T07:33:31;14.63;;;5.20;;
31347;SDS011;21711;49.708;18.568;2023-11-19T07:35:59;11.20;;;5.25;;
31347;SDS011;21711;49.708;18.568;2023-11-19T07:38:26;12.60;;;5.47;;
31347;SDS011;21711;49.708;18.568;2023-11-19T07:40:54;12.30;;;5.78;;
31347;SDS011;21711;49.708;18.568;2023-11-19T07:43:23;14.25;;;5.47;;
31347;SDS011;21711;49.708;18.568;2023-11-19T07:45:50;14.43;;;6.75;;
31347;SDS011;21711;49.708;18.568;2023-11-19T07:48:18;11.80;;;5.50;;
31347;SDS011;21711;49.708;18.568;2023-11-19T07:50:49;11.85;;;5.25;;
31347;SDS011;21711;49.708;18.568;2023-11-19T07:53:17;16.33;;;6.85;;
31347;SDS011;21711;49.708;18.568;2023-11-19T07:55:45;13.95;;;5.97;;
31347;SDS011;21711;49.708;18.568;2023-11-19T07:58:13;10.38;;;5.45;;
31347;SDS011;21711;49.708;18.568;2023-11-19T08:00:40;11.63;;;5.25;;
31347;SDS011;21711;49.708;18.568;2023-11-19T08:03:08;13.05;;;5.97;;
31347;SDS011;21711;49.708;18.568;2023-11-19T08:05:35;11.43;;;5.72;;
31347;SDS011;21711;49.708;18.568;2023-11-19T08:08:03;13.65;;;5.75;;
31347;SDS011;21711;49.708;18.568;2023-11-19T08:10:30;9.35;;;5.38;;
31347;SDS011;21711;49.708;18.568;2023-11-19T08:12:59;16.98;;;5.40;;
31347;SDS011;21711;49.708;18.568;2023-11-19T08:15:27;10.85;;;5.45;;
31347;SDS011;21711;49.708;18.568;2023-11-19T08:17:58;15.23;;;5.60;;
31347;SDS011;21711;49.708;18.568;2023-11-19T08:20:26;6.70;;;4.18;;
31347;SDS011;21711;49.708;18.568;2023-11-19T08:22:53;9.60;;;4.25;;
31347;SDS011;21711;49.708;18.568;2023-11-19T08:25:21;12.82;;;4.63;;
31347;SDS011;21711;49.708;18.568;2023-11-19T08:27:49;8.18;;;3.80;;
31347;SDS011;21711;49.708;18.568;2023-11-19T08:30:17;7.68;;;3.42;;
31347;SDS011;21711;49.708;18.568;2023-11-19T08:32:45;7.80;;;4.15;;
31347;SDS011;21711;49.708;18.568;2023-11-19T08:35:12;9.52;;;4.43;;
31347;SDS011;21711;49.708;18.568;2023-11-19T08:37:40;8.40;;;4.43;;
31347;SDS011;21711;49.708;18.568;2023-11-19T08:40:08;10.32;;;4.38;;
31347;SDS011;21711;49.708;18.568;2023-11-19T08:42:37;12.77;;;4.22;;
31347;SDS011;21711;49.708;18.568;2023-11-19T08:45:05;8.30;;;4.10;;
31347;SDS011;21711;49.708;18.568;2023-11-19T08:47:38;10.02;;;4.47;;
31347;SDS011;21711;49.708;18.568;2023-11-19T08:50:07;7.75;;;4.32;;
31347;SDS011;21711;49.708;18.568;2023-11-19T08:52:36;11.40;;;5.05;;
31347;SDS011;21711;49.708;18.568;2023-11-19T08:55:03;9.75;;;4.78;;
31347;SDS011;21711;49.708;18.568;2023-11-19T08:57:32;11.00;;;5.00;;
31347;SDS011;21711;49.708;18.568;2023-11-19T08:59:59;11.57;;;4.75;;
31347;SDS011;21711;49.708;18.568;2023-11-19T09:02:27;9.52;;;4.68;;
31347;SDS011;21711;49.708;18.568;2023-11-19T09:04:54;10.15;;;4.57;;
31347;SDS011;21711;49.708;18.568;2023-11-19T09:07:22;9.38;;;4.50;;
31347;SDS011;21711;49.708;18.568;2023-11-19T09:09:49;18.92;;;8.35;;
31347;SDS011;21711;49.708;18.568;2023-11-19T09:12:17;11.75;;;5.38;;
31347;SDS011;21711;49.708;18.568;2023-11-19T09:14:44;11.75;;;5.70;;
31347;SDS011;21711;49.708;18.568;2023-11-19T09:17:12;8.80;;;5.00;;
31347;SDS011;21711;49.708;18.568;2023-11-19T09:19:40;10.65;;;4.75;;
31347;SDS011;21711;49.708;18.568;2023-11-19T09:22:08;9.15;;;4.75;;
31347;SDS011;21711;49.708;18.568;2023-11-19T09:24:35;10.80;;;5.00;;
31347;SDS011;21711;49.708;18.568;2023-11-19T09:27:03;11.55;;;4.88;;
31347;SDS011;21711;49.708;18.568;2023-11-19T09:29:32;8.93;;;4.60;;
31347;SDS011;21711;49.708;18.568;2023-11-19T09:31:59;8.13;;;4.63;;
31347;SDS011;21711;49.708;18.568;2023-11-19T09:34:30;9.27;;;4.47;;
31347;SDS011;21711;49.708;18.568;2023-11-19T09:36:58;9.50;;;4.97;;
31347;SDS011;21711;49.708;18.568;2023-11-19T09:39:25;11.65;;;5.25;;
31347;SDS011;21711;49.708;18.568;2023-11-19T09:41:53;12.40;;;4.93;;
31347;SDS011;21711;49.708;18.568;2023-11-19T09:44:20;8.57;;;4.25;;
31347;SDS011;21711;49.708;18.568;2023-11-19T09:46:48;10.27;;;4.93;;
31347;SDS011;21711;49.708;18.568;2023-11-19T09:49:16;10.52;;;4.90;;
31347;SDS011;21711;49.708;18.568;2023-11-19T09:51:55;6.88;;;4.18;;
31347;SDS011;21711;49.708;18.568;2023-11-19T09:54:23;9.95;;;4.57;;
31347;SDS011;21711;49.708;18.568;2023-11-19T09:56:50;11.00;;;4.13;;
31347;SDS011;21711;49.708;18.568;2023-11-19T09:59:18;7.72;;;3.92;;
31347;SDS011;21711;49.708;18.568;2023-11-19T10:01:46;8.73;;;4.18;;
31347;SDS011;21711;49.708;18.568;2023-11-19T10:04:15;10.27;;;3.95;;
31347;SDS011;21711;49.708;18.568;2023-11-19T10:06:44;8.20;;;3.63;;
31347;SDS011;21711;49.708;18.568;2023-11-19T10:09:12;11.98;;;3.97;;
31347;SDS011;21711;49.708;18.568;2023-11-19T10:11:41;6.68;;;3.25;;
31347;SDS011;21711;49.708;18.568;2023-11-19T10:14:09;8.25;;;4.03;;
31347;SDS011;21711;49.708;18.568;2023-11-19T10:16:36;8.23;;;3.78;;
31347;SDS011;21711;49.708;18.568;2023-11-19T10:19:05;10.85;;;4.18;;
31347;SDS011;21711;49.708;18.568;2023-11-19T10:21:33;7.10;;;3.72;;
31347;SDS011;21711;49.708;18.568;2023-11-19T10:24:01;8.43;;;4.00;;
31347;SDS011;21711;49.708;18.568;2023-11-19T10:26:29;8.35;;;4.18;;
31347;SDS011;21711;49.708;18.568;2023-11-19T10:28:56;10.30;;;4.80;;
31347;SDS011;21711;49.708;18.568;2023-11-19T10:31:24;9.07;;;3.92;;
31347;SDS011;21711;49.708;18.568;2023-11-19T10:33:53;8.25;;;3.78;;
31347;SDS011;21711;49.708;18.568;2023-11-19T10:36:20;8.52;;;4.50;;
31347;SDS011;21711;49.708;18.568;2023-11-19T10:38:54;8.68;;;4.28;;
31347;SDS011;21711;49.708;18.568;2023-11-19T10:41:30;9.80;;;4.82;;
31347;SDS011;21711;49.708;18.568;2023-11-19T10:43:59;10.05;;;4.13;;
31347;SDS011;21711;49.708;18.568;2023-11-19T10:46:36;10.73;;;4.85;;
31347;SDS011;21711;49.708;18.568;2023-11-19T10:49:07;10.85;;;4.65;;
31347;SDS011;21711;49.708;18.568;2023-11-19T10:51:36;6.50;;;3.88;;
31347;SDS011;21711;49.708;18.568;2023-11-19T10:54:08;7.80;;;4.25;;
31347;SDS011;21711;49.708;18.568;2023-11-19T10:56:37;10.55;;;4.72;;
31347;SDS011;21711;49.708;18.568;2023-11-19T10:59:06;7.13;;;3.67;;
31347;SDS011;21711;49.708;18.568;2023-11-19T11:01:44;10.98;;;3.97;;
31347;SDS011;21711;49.708;18.568;2023-11-19T11:04:14;9.05;;;3.65;;
31347;SDS011;21711;49.708;18.568;2023-11-19T11:06:46;8.20;;;4.20;;
31347;SDS011;21711;49.708;18.568;2023-11-19T11:09:15;9.35;;;4.70;;
31347;SDS011;21711;49.708;18.568;2023-11-19T11:11:46;9.77;;;3.95;;
31347;SDS011;21711;49.708;18.568;2023-11-19T11:14:14;8.70;;;4.40;;
31347;SDS011;21711;49.708;18.568;2023-11-19T11:16:45;8.35;;;4.38;;
31347;SDS011;21711;49.708;18.568;2023-11-19T11:19:15;11.35;;;5.53;;
31347;SDS011;21711;49.708;18.568;2023-11-19T11:21:46;11.35;;;5.80;;
31347;SDS011;21711;49.708;18.568;2023-11-19T11:30:31;21.02;;;10.80;;
31347;SDS011;21711;49.708;18.568;2023-11-19T11:36:08;8.00;;;3.70;;
31347;SDS011;21711;49.708;18.568;2023-11-19T11:38:47;7.13;;;3.88;;
31347;SDS011;21711;49.708;18.568;2023-11-19T11:41:22;9.85;;;4.50;;
31347;SDS011;21711;49.708;18.568;2023-11-19T11:43:56;8.15;;;4.00;;
31347;SDS011;21711;49.708;18.568;2023-11-19T11:49:05;10.35;;;5.40;;
31347;SDS011;21711;49.708;18.568;2023-11-19T11:54:11;10.27;;;5.50;;
31347;SDS011;21711;49.708;18.568;2023-11-19T11:57:06;9.65;;;4.53;;
31347;SDS011;21711;49.708;18.568;2023-11-19T12:02:12;8.93;;;5.05;;
31347;SDS011;21711;49.708;18.568;2023-11-19T12:04:49;8.40;;;4.35;;
31347;SDS011;21711;49.708;18.568;2023-11-19T12:07:22;21.33;;;9.98;;
31347;SDS011;21711;49.708;18.568;2023-11-19T12:09:52;14.48;;;6.68;;
31347;SDS011;21711;49.708;18.568;2023-11-19T12:12:34;10.32;;;5.05;;
31347;SDS011;21711;49.708;18.568;2023-11-19T12:15:06;6.70;;;3.75;;
31347;SDS011;21711;49.708;18.568;2023-11-19T12:17:38;8.60;;;4.45;;
31347;SDS011;21711;49.708;18.568;2023-11-19T12:20:11;8.88;;;4.53;;
31347;SDS011;21711;49.708;18.568;2023-11-19T12:22:40;10.55;;;4.53;;
31347;SDS011;21711;49.708;18.568;2023-11-19T12:25:10;7.43;;;3.67;;
31347;SDS011;21711;49.708;18.568;2023-11-19T12:27:43;6.78;;;3.97;;
31347;SDS011;21711;49.708;18.568;2023-11-19T12:30:12;7.65;;;3.95;;
31347;SDS011;21711;49.708;18.568;2023-11-19T12:32:48;9.18;;;4.18;;
31347;SDS011;21711;49.708;18.568;2023-11-19T12:35:15;8.10;;;4.13;;
31347;SDS011;21711;49.708;18.568;2023-11-19T12:37:47;6.43;;;3.50;;
31347;SDS011;21711;49.708;18.568;2023-11-19T12:40:20;7.65;;;4.15;;
31347;SDS011;21711;49.708;18.568;2023-11-19T12:42:52;9.23;;;4.25;;
31347;SDS011;21711;49.708;18.568;2023-11-19T12:45:21;9.60;;;4.20;;
31347;SDS011;21711;49.708;18.568;2023-11-19T12:48:03;7.53;;;4.03;;
31347;SDS011;21711;49.708;18.568;2023-11-19T12:50:50;7.20;;;3.67;;
31347;SDS011;21711;49.708;18.568;2023-11-19T12:53:23;9.80;;;4.57;;
31347;SDS011;21711;49.708;18.568;2023-11-19T12:55:53;6.88;;;3.67;;
31347;SDS011;21711;49.708;18.568;2023-11-19T12:58:29;11.75;;;5.00;;
31347;SDS011;21711;49.708;18.568;2023-11-19T13:01:03;9.32;;;4.38;;
31347;SDS011;21711;49.708;18.568;2023-11-19T13:03:38;10.25;;;4.15;;
31347;SDS011;21711;49.708;18.568;2023-11-19T13:06:07;9.30;;;4.70;;
31347;SDS011;21711;49.708;18.568;2023-11-19T13:08:40;10.27;;;4.75;;
31347;SDS011;21711;49.708;18.568;2023-11-19T13:11:12;7.47;;;4.07;;
31347;SDS011;21711;49.708;18.568;2023-11-19T13:13:56;8.95;;;4.28;;
31347;SDS011;21711;49.708;18.568;2023-11-19T13:16:26;9.85;;;4.55;;
31347;SDS011;21711;49.708;18.568;2023-11-19T13:18:55;8.73;;;3.80;;
31347;SDS011;21711;49.708;18.568;2023-11-19T13:21:23;9.30;;;4.50;;
31347;SDS011;21711;49.708;18.568;2023-11-19T13:23:51;8.75;;;4.03;;
31347;SDS011;21711;49.708;18.568;2023-11-19T13:26:18;11.05;;;5.55;;
31347;SDS011;21711;49.708;18.568;2023-11-19T13:28:46;8.13;;;4.20;;
31347;SDS011;21711;49.708;18.568;2023-11-19T13:31:13;8.13;;;4.63;;
31347;SDS011;21711;49.708;18.568;2023-11-19T13:33:41;12.35;;;6.30;;
31347;SDS011;21711;49.708;18.568;2023-11-19T13:36:09;16.92;;;8.05;;
31347;SDS011;21711;49.708;18.568;2023-11-19T13:38:41;15.48;;;7.57;;
31347;SDS011;21711;49.708;18.568;2023-11-19T13:41:11;20.20;;;9.27;;
31347;SDS011;21711;49.708;18.568;2023-11-19T13:43:39;13.10;;;5.65;;
31347;SDS011;21711;49.708;18.568;2023-11-19T13:46:07;12.95;;;5.60;;
31347;SDS011;21711;49.708;18.568;2023-11-19T13:48:37;16.13;;;6.82;;
31347;SDS011;21711;49.708;18.568;2023-11-19T13:51:05;11.43;;;4.63;;
31347;SDS011;21711;49.708;18.568;2023-11-19T13:53:33;12.30;;;6.00;;
31347;SDS011;21711;49.708;18.568;2023-11-19T13:56:03;20.08;;;6.65;;
31347;SDS011;21711;49.708;18.568;2023-11-19T13:58:31;16.45;;;7.00;;
31347;SDS011;21711;49.708;18.568;2023-11-19T14:00:58;11.13;;;5.28;;
31347;SDS011;21711;49.708;18.568;2023-11-19T14:03:26;15.65;;;5.68;;
31347;SDS011;21711;49.708;18.568;2023-11-19T14:05:53;14.48;;;5.82;;
31347;SDS011;21711;49.708;18.568;2023-11-19T14:08:22;11.50;;;5.15;;
31347;SDS011;21711;49.708;18.568;2023-11-19T14:10:51;12.60;;;5.37;;
31347;SDS011;21711;49.708;18.568;2023-11-19T14:13:22;11.00;;;5.80;;
31347;SDS011;21711;49.708;18.568;2023-11-19T14:15:50;8.57;;;4.00;;
31347;SDS011;21711;49.708;18.568;2023-11-19T14:18:18;9.63;;;4.78;;
31347;SDS011;21711;49.708;18.568;2023-11-19T14:20:46;10.75;;;4.53;;
31347;SDS011;21711;49.708;18.568;2023-11-19T14:23:14;11.05;;;5.25;;
31347;SDS011;21711;49.708;18.568;2023-11-19T14:25:43;8.52;;;4.50;;
31347;SDS011;21711;49.708;18.568;2023-11-19T14:28:10;10.23;;;4.50;;
31347;SDS011;21711;49.708;18.568;2023-11-19T14:30:37;13.02;;;5.95;;
31347;SDS011;21711;49.708;18.568;2023-11-19T14:33:05;12.57;;;5.90;;
31347;SDS011;21711;49.708;18.568;2023-11-19T14:35:32;11.25;;;5.35;;
31347;SDS011;21711;49.708;18.568;2023-11-19T14:38:00;11.90;;;5.32;;
31347;SDS011;21711;49.708;18.568;2023-11-19T14:40:31;13.07;;;5.40;;
31347;SDS011;21711;49.708;18.568;2023-11-19T14:43:01;11.95;;;5.82;;
31347;SDS011;21711;49.708;18.568;2023-11-19T14:45:29;9.00;;;4.55;;
31347;SDS011;21711;49.708;18.568;2023-11-19T14:48:07;8.73;;;4.32;;
31347;SDS011;21711;49.708;18.568;2023-11-19T14:50:35;8.20;;;4.38;;
31347;SDS011;21711;49.708;18.568;2023-11-19T14:53:02;7.38;;;3.85;;
31347;SDS011;21711;49.708;18.568;2023-11-19T14:55:30;10.30;;;3.85;;
31347;SDS011;21711;49.708;18.568;2023-11-19T14:57:58;10.65;;;4.82;;